Time;durP1;ratioP1;P1;durP2;ratioP2;P2;SDS_P1;SDS_P2;PMS_P1;PMS_P2;Temp;Humidity;BMP_temperature;BMP_pressure;BME280_temperature;BME280_humidity;BME280_pressure;Samples;Min_cycle;Max_cycle;Signal;HPM_P1;HPM_P2
2021/09/26 00:01:33;;;;;;;7.30;6.70;;;17.90;99.90;;;;;;6003256;23;20268;-68
2021/09/26 00:03:59;;;;;;;7.07;6.47;;;17.80;99.90;;;;;;6003070;23;20153;-68
2021/09/26 00:06:24;;;;;;;7.00;6.40;;;17.80;99.90;;;;;;6001857;23;20219;-68
2021/09/26 00:08:52;;;;;;;6.77;6.27;;;17.80;99.90;;;;;;6002001;23;20259;-68
2021/09/26 00:11:18;;;;;;;6.33;5.83;;;17.80;99.90;;;;;;6005868;23;20607;-68
2021/09/26 00:13:46;;;;;;;6.00;5.50;;;17.80;99.90;;;;;;6004467;23;21067;-68
2021/09/26 00:16:11;;;;;;;6.50;6.00;;;17.80;99.90;;;;;;6003564;23;20208;-68
2021/09/26 00:18:39;;;;;;;6.57;6.07;;;17.80;99.90;;;;;;6005840;23;20652;-68
2021/09/26 00:21:05;;;;;;;6.70;6.20;;;17.80;99.90;;;;;;6007386;23;20578;-68
2021/09/26 00:23:32;;;;;;;6.43;5.93;;;17.80;99.90;;;;;;6006449;23;20534;-68
2021/09/26 00:25:59;;;;;;;5.77;5.37;;;17.80;99.90;;;;;;6004719;23;20224;-68
2021/09/26 00:28:27;;;;;;;6.40;5.90;;;17.80;99.90;;;;;;6006233;23;20648;-68
2021/09/26 00:30:52;;;;;;;5.97;5.57;;;17.70;99.90;;;;;;6006088;23;20557;-68
2021/09/26 00:33:18;;;;;;;7.00;6.40;;;17.80;99.90;;;;;;6005522;23;20557;-68
2021/09/26 00:35:44;;;;;;;6.37;5.87;;;17.80;99.90;;;;;;6004026;23;20279;-69
2021/09/26 00:38:14;;;;;;;6.70;6.10;;;17.70;99.90;;;;;;6004674;23;20184;-68
2021/09/26 00:40:40;;;;;;;6.63;6.03;;;17.70;99.90;;;;;;6007093;23;20741;-68
2021/09/26 00:43:15;;;;;;;7.23;6.53;;;17.70;99.90;;;;;;6005283;23;20549;-68
2021/09/26 00:45:41;;;;;;;7.50;6.80;;;17.70;99.90;;;;;;6004523;23;20208;-68
2021/09/26 00:48:07;;;;;;;6.40;5.80;;;17.70;99.90;;;;;;6005804;23;20669;-68
2021/09/26 00:50:39;;;;;;;6.50;6.00;;;17.70;99.90;;;;;;6006163;23;20479;-68
2021/09/26 00:53:07;;;;;;;6.53;6.03;;;17.70;99.90;;;;;;6005609;23;20179;-67
2021/09/26 00:55:33;;;;;;;7.13;6.20;;;17.70;99.90;;;;;;6003180;23;20920;-68
2021/09/26 00:57:59;;;;;;;6.10;5.70;;;17.70;99.90;;;;;;6003642;23;20594;-68
2021/09/26 01:00:34;;;;;;;6.10;5.33;;;17.70;99.90;;;;;;6005779;23;20628;-68
2021/09/26 01:03:02;;;;;;;5.83;5.43;;;17.70;99.90;;;;;;6005993;23;21007;-68
2021/09/26 01:05:28;;;;;;;6.50;6.00;;;17.60;99.90;;;;;;6004352;23;20557;-68
2021/09/26 01:08:04;;;;;;;5.93;5.50;;;17.60;99.90;;;;;;6005761;23;20573;-67
2021/09/26 01:10:51;;;;;;;8.20;5.50;;;17.60;99.90;;;;;;5980468;23;20596;-67
2021/09/26 01:13:30;;;;;;;5.63;5.13;;;17.60;99.90;;;;;;6018406;23;20522;-68
2021/09/26 01:16:21;;;;;;;6.10;5.63;;;17.60;99.90;;;;;;6023925;23;21330;-67
2021/09/26 01:19:01;;;;;;;5.53;5.03;;;17.50;99.90;;;;;;6008975;23;20588;-67
2021/09/26 01:21:44;;;;;;;5.50;5.00;;;17.50;99.90;;;;;;6007563;23;20553;-67
2021/09/26 01:24:34;;;;;;;6.47;5.87;;;17.50;99.90;;;;;;6006370;23;20511;-67
2021/09/26 01:27:24;;;;;;;5.90;5.30;;;17.50;99.90;;;;;;6005074;23;20609;-69
2021/09/26 01:30:14;;;;;;;5.97;5.47;;;17.40;99.90;;;;;;6005925;23;20645;-67
2021/09/26 01:32:41;;;;;;;6.17;5.60;;;17.40;99.90;;;;;;6005390;23;20542;-66
2021/09/26 01:35:10;;;;;;;6.07;5.57;;;17.40;99.90;;;;;;6004630;23;20630;-67
2021/09/26 01:37:46;;;;;;;6.10;5.50;;;17.40;99.90;;;;;;6004099;23;20692;-67
2021/09/26 01:40:43;;;;;;;5.90;5.40;;;17.40;99.90;;;;;;6005891;23;20617;-67
2021/09/26 01:43:14;;;;;;;5.93;5.53;;;17.40;99.90;;;;;;6005091;23;20510;-67
2021/09/26 01:45:47;;;;;;;6.00;5.50;;;17.40;99.90;;;;;;6006224;23;20597;-67
2021/09/26 01:48:19;;;;;;;6.13;5.63;;;17.40;99.90;;;;;;6005392;23;20576;-67
2021/09/26 01:50:51;;;;;;;5.93;5.43;;;17.40;99.90;;;;;;6005747;23;20518;-67
2021/09/26 01:53:18;;;;;;;5.50;5.10;;;17.40;99.90;;;;;;5981167;23;20620;-67
2021/09/26 01:55:45;;;;;;;6.43;5.83;;;17.40;99.90;;;;;;6004144;23;20601;-67
2021/09/26 01:58:19;;;;;;;6.37;5.97;;;17.40;99.90;;;;;;6005649;23;20581;-67
2021/09/26 02:00:48;;;;;;;6.00;5.50;;;17.40;99.90;;;;;;5978870;23;20681;-67
2021/09/26 02:03:22;;;;;;;5.90;5.50;;;17.50;99.90;;;;;;6004752;23;20590;-67
2021/09/26 02:05:48;;;;;;;5.90;4.87;;;17.50;99.90;;;;;;6003726;23;20605;-67
2021/09/26 02:08:15;;;;;;;5.70;5.20;;;17.50;99.90;;;;;;6003786;23;20566;-68
2021/09/26 02:10:44;;;;;;;5.63;5.10;;;17.50;99.90;;;;;;6005422;23;20213;-67
2021/09/26 02:13:11;;;;;;;5.70;5.30;;;17.50;99.90;;;;;;6005032;23;20663;-67
2021/09/26 02:15:42;;;;;;;5.73;5.27;;;17.40;99.90;;;;;;5978149;23;20597;-67
2021/09/26 02:18:08;;;;;;;6.03;5.47;;;17.50;99.90;;;;;;6003206;23;20584;-69
2021/09/26 02:20:38;;;;;;;4.90;4.50;;;17.50;99.90;;;;;;6004627;23;20600;-69
2021/09/26 02:23:10;;;;;;;6.63;5.10;;;17.50;99.90;;;;;;5980032;23;20586;-67
2021/09/26 02:25:36;;;;;;;6.93;5.57;;;17.50;99.90;;;;;;6003824;23;20533;-67
2021/09/26 02:28:05;;;;;;;5.93;5.50;;;17.50;99.90;;;;;;6004462;23;20581;-67
2021/09/26 02:30:31;;;;;;;5.20;4.80;;;17.50;99.90;;;;;;6006902;23;20876;-67
2021/09/26 02:32:57;;;;;;;5.37;4.87;;;17.50;99.90;;;;;;5979360;23;20565;-67
2021/09/26 02:35:23;;;;;;;5.07;4.67;;;17.50;99.90;;;;;;5979759;23;20173;-67
2021/09/26 02:37:51;;;;;;;5.43;5.00;;;17.50;99.90;;;;;;6004369;23;20618;-67
2021/09/26 02:40:17;;;;;;;5.87;5.27;;;17.50;99.90;;;;;;6005197;23;20187;-67
2021/09/26 02:42:52;;;;;;;5.70;5.30;;;17.50;99.90;;;;;;6005371;23;20543;-68
2021/09/26 02:45:22;;;;;;;5.30;4.67;;;17.50;99.90;;;;;;6005047;23;20525;-67
2021/09/26 02:48:12;;;;;;;5.63;5.13;;;17.50;99.90;;;;;;6005074;23;20561;-67
2021/09/26 02:50:44;;;;;;;5.97;5.57;;;17.50;99.90;;;;;;6005091;23;20526;-68
2021/09/26 02:53:13;;;;;;;6.10;5.50;;;17.40;99.90;;;;;;6005149;23;20645;-68
2021/09/26 02:55:44;;;;;;;5.70;5.20;;;17.40;99.90;;;;;;6008539;23;21234;-70
2021/09/26 02:58:10;;;;;;;6.23;5.70;;;17.40;99.90;;;;;;6011795;23;20599;-68
2021/09/26 03:00:48;;;;;;;5.83;5.10;;;17.40;99.90;;;;;;6009833;23;20585;-67
2021/09/26 03:03:21;;;;;;;5.53;5.13;;;17.40;99.90;;;;;;6003963;23;20566;-67
2021/09/26 03:05:48;;;;;;;6.43;5.80;;;17.40;99.90;;;;;;6001501;23;20600;-68
2021/09/26 03:08:17;;;;;;;6.00;5.50;;;17.40;99.90;;;;;;5978180;23;20695;-67
2021/09/26 03:10:47;;;;;;;5.80;5.30;;;17.40;99.90;;;;;;6003975;23;20581;-68
2021/09/26 03:13:13;;;;;;;5.90;5.40;;;17.40;99.90;;;;;;6005483;23;20562;-70
2021/09/26 03:15:38;;;;;;;6.33;5.70;;;17.40;99.90;;;;;;5978902;23;20861;-68
2021/09/26 03:18:07;;;;;;;8.07;5.57;;;17.40;99.90;;;;;;6002989;23;20578;-68
2021/09/26 03:20:35;;;;;;;6.53;5.93;;;17.50;99.90;;;;;;6004162;23;20177;-68
2021/09/26 03:23:02;;;;;;;6.70;6.10;;;17.40;99.90;;;;;;6003930;23;20554;-68
2021/09/26 03:25:27;;;;;;;6.13;5.63;;;17.40;99.90;;;;;;5979145;23;20664;-68
2021/09/26 03:27:53;;;;;;;6.13;5.53;;;17.50;99.90;;;;;;5990195;23;20637;-68
2021/09/26 03:30:19;;;;;;;7.50;6.80;;;17.50;99.90;;;;;;6027862;23;20157;-69
2021/09/26 03:32:45;;;;;;;6.80;6.30;;;17.50;99.90;;;;;;6028551;23;20558;-67
2021/09/26 03:35:14;;;;;;;6.70;6.20;;;17.50;99.90;;;;;;6016602;23;20180;-67
2021/09/26 03:37:40;;;;;;;7.60;6.70;;;17.50;99.90;;;;;;6007679;23;20271;-68
2021/09/26 03:40:09;;;;;;;6.73;5.90;;;17.50;99.90;;;;;;6008058;23;20961;-68
2021/09/26 03:42:36;;;;;;;6.93;6.20;;;17.50;99.90;;;;;;6004188;23;21074;-67
2021/09/26 03:45:02;;;;;;;7.57;6.97;;;17.50;99.90;;;;;;6004634;23;20632;-68
2021/09/26 03:47:30;;;;;;;7.70;6.90;;;17.50;99.90;;;;;;6004079;23;20708;-68
2021/09/26 03:49:55;;;;;;;7.60;6.90;;;17.50;99.90;;;;;;5978160;23;20566;-67
2021/09/26 03:52:21;;;;;;;8.13;7.33;;;17.50;99.90;;;;;;5980025;23;20569;-67
2021/09/26 03:54:50;;;;;;;7.87;7.17;;;17.60;99.90;;;;;;6004031;23;20169;-67
2021/09/26 03:57:17;;;;;;;8.23;7.53;;;17.60;99.90;;;;;;6003042;23;20215;-67
2021/09/26 03:59:43;;;;;;;8.50;7.70;;;17.60;99.90;;;;;;5980830;23;20570;-67
2021/09/26 04:02:09;;;;;;;7.87;7.17;;;17.60;99.90;;;;;;6003608;23;20592;-68
2021/09/26 04:04:37;;;;;;;7.53;6.90;;;17.60;99.90;;;;;;6005526;23;20157;-68
2021/09/26 04:07:03;;;;;;;9.03;7.93;;;17.50;99.90;;;;;;6014504;23;20601;-68
2021/09/26 04:09:31;;;;;;;7.80;7.10;;;17.60;99.90;;;;;;6023962;23;20811;-68
2021/09/26 04:11:56;;;;;;;8.57;7.70;;;17.60;99.90;;;;;;5986540;23;20636;-68
2021/09/26 04:14:22;;;;;;;8.07;7.37;;;17.60;99.90;;;;;;6006063;23;20585;-68
2021/09/26 04:17:09;;;;;;;8.40;7.70;;;17.60;99.90;;;;;;6004880;23;20216;-68
2021/09/26 04:19:34;;;;;;;8.03;7.23;;;17.60;99.90;;;;;;6001331;23;20624;-68
2021/09/26 04:21:59;;;;;;;9.47;8.47;;;17.60;99.90;;;;;;6004546;23;20653;-67
2021/09/26 04:24:25;;;;;;;8.97;8.17;;;17.60;99.90;;;;;;6004997;23;20180;-68
2021/09/26 04:26:51;;;;;;;8.43;7.73;;;17.60;99.90;;;;;;6002380;23;20568;-68
2021/09/26 04:29:16;;;;;;;8.53;7.83;;;17.60;99.90;;;;;;6004165;23;20212;-68
2021/09/26 04:31:42;;;;;;;8.40;7.70;;;17.60;99.90;;;;;;6004253;23;20172;-68
2021/09/26 04:34:08;;;;;;;8.70;7.40;;;17.70;99.90;;;;;;6004758;23;20612;-68
2021/09/26 04:36:33;;;;;;;8.03;7.40;;;17.70;99.90;;;;;;6003199;23;20216;-67
2021/09/26 04:38:59;;;;;;;9.13;7.87;;;17.70;99.90;;;;;;6003354;23;20232;-68
2021/09/26 04:41:24;;;;;;;9.27;8.47;;;17.70;99.90;;;;;;5980529;23;20195;-68
2021/09/26 04:43:50;;;;;;;9.30;8.10;;;17.70;99.90;;;;;;6004173;23;20236;-67
2021/09/26 04:46:15;;;;;;;13.70;9.17;;;17.70;99.90;;;;;;5977966;23;20284;-67
2021/09/26 04:48:44;;;;;;;9.63;8.83;;;17.70;99.90;;;;;;5980237;23;20639;-67
2021/09/26 04:51:09;;;;;;;11.37;10.43;;;17.70;99.90;;;;;;6002778;23;20165;-67
2021/09/26 04:53:35;;;;;;;10.57;9.63;;;17.70;99.90;;;;;;5978410;23;20566;-68
2021/09/26 04:56:08;;;;;;;9.97;9.00;;;17.70;99.90;;;;;;5998862;23;20208;-67
2021/09/26 04:58:33;;;;;;;10.37;9.30;;;17.70;99.90;;;;;;6001940;23;20244;-68
2021/09/26 05:00:59;;;;;;;9.47;8.57;;;17.70;99.90;;;;;;5976928;23;20696;-67
2021/09/26 05:03:24;;;;;;;9.87;8.97;;;17.70;99.90;;;;;;6003218;23;20161;-67
2021/09/26 05:05:50;;;;;;;10.03;9.20;;;17.70;99.90;;;;;;6004022;23;20232;-67
2021/09/26 05:08:16;;;;;;;10.80;9.70;;;17.70;99.90;;;;;;6002244;23;20185;-67
2021/09/26 05:10:44;;;;;;;9.93;8.83;;;17.70;99.90;;;;;;6003396;23;20192;-67
2021/09/26 05:13:09;;;;;;;10.67;9.67;;;17.70;99.90;;;;;;6004142;23;20180;-68
2021/09/26 05:15:42;;;;;;;11.10;9.03;;;17.70;99.90;;;;;;6002056;23;20881;-67
2021/09/26 05:18:12;;;;;;;10.60;9.60;;;17.70;99.90;;;;;;6002847;23;20192;-67
2021/09/26 05:20:38;;;;;;;10.40;9.50;;;17.70;99.90;;;;;;5977011;23;20601;-67
2021/09/26 05:23:06;;;;;;;10.83;9.90;;;17.80;99.90;;;;;;6003724;23;21110;-68
2021/09/26 05:25:31;;;;;;;10.07;9.17;;;17.70;99.90;;;;;;6002106;23;20189;-67
2021/09/26 05:27:57;;;;;;;11.17;10.07;;;17.70;99.90;;;;;;6003391;23;20672;-67
2021/09/26 05:30:26;;;;;;;11.03;10.10;;;17.80;99.90;;;;;;6004746;23;20165;-68
2021/09/26 05:32:53;;;;;;;11.33;9.90;;;17.80;99.90;;;;;;6004516;23;20165;-67
2021/09/26 05:35:21;;;;;;;11.20;10.30;;;17.80;99.90;;;;;;6004316;23;20533;-67
2021/09/26 05:37:49;;;;;;;11.37;10.37;;;17.80;99.90;;;;;;6005644;23;20567;-68
2021/09/26 05:40:15;;;;;;;11.30;9.83;;;17.80;99.90;;;;;;6006132;23;20550;-68
2021/09/26 05:42:40;;;;;;;11.07;10.07;;;17.80;99.90;;;;;;6006001;23;21148;-68
2021/09/26 05:45:09;;;;;;;12.07;10.90;;;17.80;99.90;;;;;;5979124;23;20161;-68
2021/09/26 05:47:34;;;;;;;13.93;11.17;;;17.80;99.90;;;;;;5979863;23;20231;-68
2021/09/26 05:50:00;;;;;;;10.93;9.90;;;17.90;99.90;;;;;;6005807;23;21059;-68
2021/09/26 05:52:25;;;;;;;10.67;9.63;;;17.80;99.90;;;;;;5979069;23;20483;-67
2021/09/26 05:54:51;;;;;;;12.23;11.13;;;17.80;99.90;;;;;;6004557;23;20666;-67
2021/09/26 05:57:19;;;;;;;11.30;10.30;;;17.90;99.90;;;;;;6002561;23;20221;-67
2021/09/26 05:59:44;;;;;;;11.87;10.70;;;17.90;99.90;;;;;;6004234;23;20161;-67
2021/09/26 06:02:10;;;;;;;11.90;10.80;;;17.90;99.90;;;;;;6003467;23;20692;-67
2021/09/26 06:04:36;;;;;;;13.00;11.73;;;17.90;99.90;;;;;;5999188;23;20157;-68
2021/09/26 06:07:03;;;;;;;11.40;10.33;;;17.90;99.90;;;;;;5973879;23;20708;-68
2021/09/26 06:09:29;;;;;;;12.07;11.07;;;17.90;99.90;;;;;;6008022;23;21088;-71
2021/09/26 06:11:54;;;;;;;12.80;11.63;;;17.90;99.90;;;;;;6012716;23;20534;-67
2021/09/26 06:14:20;;;;;;;11.80;10.60;;;17.80;99.90;;;;;;6011658;23;20636;-68
2021/09/26 06:16:46;;;;;;;12.57;11.37;;;17.90;99.90;;;;;;5999054;23;20208;-67
2021/09/26 06:19:11;;;;;;;10.87;9.90;;;17.90;99.90;;;;;;6013208;23;20165;-71
2021/09/26 06:21:37;;;;;;;11.80;10.70;;;17.90;99.90;;;;;;6012916;23;20280;-68
2021/09/26 06:24:02;;;;;;;12.10;10.93;;;18.00;99.90;;;;;;6014881;23;20157;-68
2021/09/26 06:26:28;;;;;;;11.17;10.17;;;18.00;99.90;;;;;;5988190;23;20205;-68
2021/09/26 06:28:53;;;;;;;12.97;11.73;;;18.00;99.90;;;;;;5977766;23;20196;-67
2021/09/26 06:31:19;;;;;;;11.40;10.17;;;18.00;99.90;;;;;;5999268;23;20161;-67
2021/09/26 06:33:45;;;;;;;12.20;11.10;;;17.90;99.90;;;;;;6003283;23;20161;-67
2021/09/26 06:36:11;;;;;;;12.93;11.67;;;18.00;99.90;;;;;;6001659;23;20219;-66
2021/09/26 06:38:39;;;;;;;12.80;11.60;;;18.00;99.90;;;;;;6002596;23;20185;-67
2021/09/26 06:41:04;;;;;;;11.60;10.60;;;18.00;99.90;;;;;;6001497;23;20585;-66
2021/09/26 06:43:30;;;;;;;13.17;11.97;;;18.00;99.90;;;;;;6001704;23;20701;-67
2021/09/26 06:45:55;;;;;;;11.43;10.40;;;18.10;99.90;;;;;;5973986;23;20236;-67
2021/09/26 06:48:21;;;;;;;12.73;11.63;;;18.00;99.90;;;;;;5976978;23;20215;-67
2021/09/26 06:50:49;;;;;;;11.87;10.77;;;18.00;99.90;;;;;;6001396;23;20168;-70
2021/09/26 06:53:15;;;;;;;12.20;11.03;;;18.10;99.90;;;;;;6002497;23;20172;-68
2021/09/26 06:55:41;;;;;;;11.57;10.57;;;18.10;99.90;;;;;;6000964;23;20597;-67
2021/09/26 06:58:06;;;;;;;12.10;11.10;;;18.00;99.90;;;;;;5976793;23;21143;-68
2021/09/26 07:00:32;;;;;;;11.87;10.77;;;18.10;99.90;;;;;;5984234;23;20188;-68
2021/09/26 07:02:57;;;;;;;11.67;10.67;;;18.20;99.90;;;;;;6022963;23;20173;-68
2021/09/26 07:05:26;;;;;;;11.70;10.60;;;18.20;99.90;;;;;;6011797;23;20157;-67
2021/09/26 07:07:51;;;;;;;10.77;9.87;;;18.20;99.90;;;;;;5995253;23;20169;-67
2021/09/26 07:10:19;;;;;;;11.67;10.70;;;18.30;99.90;;;;;;5991985;23;20676;-67
2021/09/26 07:12:46;;;;;;;11.23;10.10;;;18.30;99.90;;;;;;6000255;23;20168;-67
2021/09/26 07:15:11;;;;;;;11.47;10.40;;;18.30;99.90;;;;;;5998193;23;20538;-67
2021/09/26 07:17:37;;;;;;;11.73;10.53;;;18.30;99.90;;;;;;5998024;23;20617;-67
2021/09/26 07:20:03;;;;;;;10.87;9.93;;;18.40;99.90;;;;;;5999318;23;20240;-67
2021/09/26 07:22:29;;;;;;;11.03;10.03;;;18.40;99.90;;;;;;5997842;23;20596;-67
2021/09/26 07:24:56;;;;;;;11.43;10.33;;;18.50;99.90;;;;;;6001902;23;20533;-67
2021/09/26 07:27:23;;;;;;;10.97;9.90;;;18.50;99.90;;;;;;5970836;23;20212;-67
2021/09/26 07:29:48;;;;;;;10.07;8.97;;;18.60;99.90;;;;;;5976454;23;20569;-66
2021/09/26 07:32:14;;;;;;;10.03;9.17;;;18.70;99.90;;;;;;6000025;23;20569;-67
2021/09/26 07:34:40;;;;;;;9.60;8.70;;;18.70;99.90;;;;;;5976792;23;20188;-67
2021/09/26 07:37:06;;;;;;;8.93;8.23;;;18.80;99.90;;;;;;5997525;23;20212;-68
2021/09/26 07:39:32;;;;;;;10.03;9.13;;;18.90;99.90;;;;;;6001226;23;20554;-67
2021/09/26 07:41:57;;;;;;;9.47;8.70;;;19.00;99.90;;;;;;5976100;23;20192;-68
2021/09/26 07:44:23;;;;;;;10.10;8.87;;;19.00;99.90;;;;;;6000058;23;20181;-67
2021/09/26 07:46:50;;;;;;;8.70;8.00;;;19.10;99.90;;;;;;6001916;23;20356;-68
2021/09/26 07:49:15;;;;;;;9.03;8.23;;;19.10;99.90;;;;;;5997872;23;20564;-68
2021/09/26 07:51:41;;;;;;;8.50;7.60;;;19.20;99.90;;;;;;6000623;23;20553;-67
2021/09/26 07:54:07;;;;;;;8.70;7.90;;;19.20;99.90;;;;;;5996874;23;20204;-66
2021/09/26 07:56:32;;;;;;;8.23;7.37;;;19.30;99.90;;;;;;5997420;23;20204;-67
2021/09/26 07:58:58;;;;;;;8.13;7.43;;;19.30;99.90;;;;;;5997588;23;20565;-67
2021/09/26 08:01:24;;;;;;;7.50;6.90;;;19.40;99.90;;;;;;6000294;23;20189;-67
2021/09/26 08:03:49;;;;;;;8.00;7.30;;;19.40;99.90;;;;;;5999473;23;20232;-67
2021/09/26 08:06:16;;;;;;;6.80;6.30;;;19.50;99.90;;;;;;5997782;23;20243;-67
2021/09/26 08:08:42;;;;;;;8.53;7.73;;;19.50;99.90;;;;;;5998200;23;20185;-67
2021/09/26 08:11:08;;;;;;;7.30;6.60;;;19.60;99.90;;;;;;5975737;23;20603;-67
2021/09/26 08:13:33;;;;;;;7.57;6.97;;;19.70;99.90;;;;;;6001105;23;20179;-67
2021/09/26 08:15:59;;;;;;;6.70;6.20;;;19.80;99.90;;;;;;5974869;23;20208;-68
2021/09/26 08:18:25;;;;;;;6.50;5.97;;;19.80;99.90;;;;;;6003300;23;20177;-66
2021/09/26 08:20:50;;;;;;;6.80;6.20;;;19.80;99.90;;;;;;6000555;23;20888;-66
2021/09/26 08:23:16;;;;;;;6.47;5.97;;;19.90;99.90;;;;;;6000013;23;20165;-66
2021/09/26 08:25:41;;;;;;;14.33;6.07;;;20.00;99.90;;;;;;6007047;23;20205;-67
2021/09/26 08:28:07;;;;;;;6.57;5.97;;;20.10;99.90;;;;;;6022856;23;20177;-65
2021/09/26 08:30:32;;;;;;;6.60;6.07;;;20.20;99.90;;;;;;6026457;23;20270;-65
2021/09/26 08:32:58;;;;;;;7.03;6.53;;;20.30;99.90;;;;;;5992433;23;20225;-67
2021/09/26 08:35:24;;;;;;;5.47;5.07;;;20.30;99.90;;;;;;6003243;23;20217;-68
2021/09/26 08:37:50;;;;;;;5.90;5.40;;;20.30;99.90;;;;;;6004158;23;20203;-67
2021/09/26 08:40:16;;;;;;;6.00;5.50;;;20.40;99.90;;;;;;6002491;23;20165;-67
2021/09/26 08:42:42;;;;;;;6.00;5.53;;;20.50;99.90;;;;;;6001817;23;20538;-67
2021/09/26 08:45:12;;;;;;;6.33;5.73;;;20.50;99.90;;;;;;6004534;23;20637;-67
2021/09/26 08:47:39;;;;;;;5.03;4.63;;;20.60;99.90;;;;;;6002202;23;20216;-67
2021/09/26 08:50:09;;;;;;;5.13;4.63;;;20.60;99.90;;;;;;5977722;23;20585;-67
2021/09/26 08:52:35;;;;;;;6.30;5.80;;;20.70;99.90;;;;;;6004649;23;20653;-67
2021/09/26 08:55:00;;;;;;;5.67;5.37;;;20.80;99.90;;;;;;6002500;23;20649;-67
2021/09/26 08:57:26;;;;;;;6.13;5.53;;;20.80;99.90;;;;;;6002860;23;20362;-67
2021/09/26 08:59:52;;;;;;;5.83;5.23;;;20.80;99.90;;;;;;6002360;23;20160;-67
2021/09/26 09:02:18;;;;;;;6.00;5.50;;;20.90;99.90;;;;;;5977593;23;20677;-67
2021/09/26 09:04:44;;;;;;;5.40;5.00;;;21.00;99.90;;;;;;6003393;23;20651;-68
2021/09/26 09:07:11;;;;;;;4.80;4.30;;;21.20;99.90;;;;;;6003031;23;20204;-67
2021/09/26 09:09:59;;;;;;;5.60;5.20;;;21.20;99.90;;;;;;5977349;23;20180;-67
2021/09/26 09:12:27;;;;;;;5.47;5.07;;;21.30;99.90;;;;;;5977396;23;20585;-68
2021/09/26 09:14:58;;;;;;;5.30;4.90;;;21.30;99.90;;;;;;5976370;23;20565;-67
2021/09/26 09:17:25;;;;;;;5.43;5.07;;;21.40;99.90;;;;;;6003556;23;20608;-68
2021/09/26 09:20:25;;;;;;;5.40;4.90;;;21.50;99.90;;;;;;5980535;23;20561;-67
2021/09/26 09:23:05;;;;;;;5.83;5.30;;;21.50;99.90;;;;;;6003738;23;20506;-67
2021/09/26 09:25:44;;;;;;;6.27;5.20;;;21.60;99.90;;;;;;6000418;23;20494;-67
2021/09/26 09:28:16;;;;;;;5.27;4.87;;;21.60;99.90;;;;;;6003045;23;20569;-67
2021/09/26 09:30:48;;;;;;;5.70;5.20;;;21.60;99.90;;;;;;6003665;23;20641;-67
2021/09/26 09:33:15;;;;;;;4.60;4.30;;;21.70;99.90;;;;;;6002635;23;20746;-67
2021/09/26 09:35:52;;;;;;;5.30;4.90;;;21.80;99.90;;;;;;5970403;23;20599;-68
2021/09/26 09:38:39;;;;;;;5.50;5.00;;;21.80;99.90;;;;;;6002293;23;20608;-68
2021/09/26 09:41:05;;;;;;;5.03;4.70;;;21.90;99.90;;;;;;6003653;23;20582;-67
2021/09/26 09:43:30;;;;;;;4.97;4.67;;;22.00;99.90;;;;;;6001280;23;21039;-71
2021/09/26 09:45:59;;;;;;;5.27;4.87;;;22.10;99.90;;;;;;6000672;23;20211;-67
2021/09/26 09:48:27;;;;;;;5.47;4.97;;;22.20;99.90;;;;;;6001926;23;20188;-67
2021/09/26 09:51:01;;;;;;;5.50;5.10;;;22.10;99.90;;;;;;6008865;23;21080;-69
2021/09/26 09:53:26;;;;;;;6.90;6.40;;;22.10;99.90;;;;;;6024613;23;20505;-67
2021/09/26 09:56:11;;;;;;;5.07;4.67;;;22.10;99.90;;;;;;6012157;23;20594;-68
2021/09/26 09:59:03;;;;;;;5.30;5.00;;;22.00;99.90;;;;;;6006251;23;20189;-67
2021/09/26 10:01:36;;;;;;;5.53;5.13;;;22.10;99.90;;;;;;5998026;23;20612;-67
2021/09/26 10:04:04;;;;;;;5.37;4.87;;;22.20;99.90;;;;;;6002013;23;20594;-67
2021/09/26 10:06:44;;;;;;;5.70;5.20;;;22.20;99.90;;;;;;6001932;23;20693;-67
2021/09/26 10:09:19;;;;;;;6.33;5.70;;;22.30;99.90;;;;;;6002493;23;20906;-67
2021/09/26 10:11:56;;;;;;;6.17;5.67;;;22.40;99.90;;;;;;6002530;23;20580;-67
2021/09/26 10:14:29;;;;;;;5.40;4.97;;;22.40;99.90;;;;;;5977132;23;20574;-67
2021/09/26 10:16:58;;;;;;;5.17;4.67;;;22.50;99.90;;;;;;6002252;23;20609;-67
2021/09/26 10:19:26;;;;;;;5.20;4.80;;;22.60;99.90;;;;;;6004331;23;20569;-67
2021/09/26 10:21:54;;;;;;;5.80;5.40;;;22.70;99.90;;;;;;6001619;23;20597;-67
2021/09/26 10:24:22;;;;;;;5.63;5.23;;;22.70;99.90;;;;;;6003683;23;20541;-67
2021/09/26 10:26:49;;;;;;;5.03;4.70;;;22.80;99.90;;;;;;6000283;23;20604;-67
2021/09/26 10:29:18;;;;;;;5.00;4.70;;;22.90;99.90;;;;;;6001137;23;21056;-67
2021/09/26 10:31:47;;;;;;;5.27;4.77;;;22.90;99.90;;;;;;5975878;23;20573;-67
2021/09/26 10:34:12;;;;;;;4.83;4.43;;;23.00;99.90;;;;;;6003699;23;20712;-67
2021/09/26 10:36:41;;;;;;;5.30;5.00;;;23.10;99.90;;;;;;5994920;23;20757;-67
2021/09/26 10:39:08;;;;;;;5.10;4.80;;;23.10;99.90;;;;;;6002312;23;20220;-67
2021/09/26 10:41:34;;;;;;;5.40;5.10;;;23.20;99.90;;;;;;6004170;23;20637;-68
2021/09/26 10:44:23;;;;;;;5.13;4.73;;;23.30;99.90;;;;;;6004880;23;20542;-68
2021/09/26 10:47:17;;;;;;;5.80;5.40;;;23.30;99.90;;;;;;6001491;23;20605;-67
2021/09/26 10:49:50;;;;;;;9.37;7.90;;;23.40;99.90;;;;;;5979542;23;20735;-67
2021/09/26 10:52:34;;;;;;;11.23;7.97;;;23.50;99.90;;;;;;5981897;23;20577;-67
2021/09/26 10:55:18;;;;;;;6.33;5.80;;;23.60;99.90;;;;;;6004618;23;20942;-67
2021/09/26 10:57:48;;;;;;;6.20;5.00;;;23.70;99.90;;;;;;6002178;23;20696;-63
2021/09/26 11:00:33;;;;;;;5.13;4.73;;;23.90;99.90;;;;;;6005505;23;20550;-63
2021/09/26 11:03:16;;;;;;;5.53;5.13;;;24.00;99.90;;;;;;6005649;23;20510;-64
2021/09/26 11:05:43;;;;;;;6.90;5.50;;;24.00;99.90;;;;;;6003135;23;20590;-65
2021/09/26 11:08:15;;;;;;;5.60;5.20;;;24.00;99.90;;;;;;6004065;23;20606;-65
2021/09/26 11:10:53;;;;;;;5.77;5.37;;;24.20;99.90;;;;;;6003647;23;20581;-65
2021/09/26 11:13:19;;;;;;;5.50;5.10;;;24.30;99.90;;;;;;5980123;23;20570;-64
2021/09/26 11:16:12;;;;;;;5.50;5.00;;;24.40;99.90;;;;;;6002683;23;20684;-64
2021/09/26 11:18:46;;;;;;;5.60;5.20;;;24.40;99.90;;;;;;6004018;23;20570;-66
2021/09/26 11:21:39;;;;;;;5.23;4.93;;;24.50;99.90;;;;;;6004497;23;21150;-66
2021/09/26 11:24:06;;;;;;;5.07;4.67;;;24.50;99.90;;;;;;6004323;23;20893;-65
2021/09/26 11:26:59;;;;;;;5.73;5.23;;;24.60;99.90;;;;;;5993756;23;20620;-64
2021/09/26 11:29:26;;;;;;;5.53;5.13;;;24.80;99.90;;;;;;6000219;23;21090;-67
2021/09/26 11:31:52;;;;;;;5.73;5.30;;;24.90;99.90;;;;;;6004550;23;21140;-70
2021/09/26 11:34:37;;;;;;;5.40;5.00;;;25.00;99.90;;;;;;6002464;23;20546;-70
2021/09/26 11:37:03;;;;;;;5.30;4.90;;;25.10;99.90;;;;;;5999935;23;20934;-70
2021/09/26 11:39:30;;;;;;;5.50;5.17;;;25.30;99.90;;;;;;6001579;23;21084;-71
2021/09/26 11:41:57;;;;;;;6.00;5.60;;;25.20;99.90;;;;;;6002003;23;20593;-71
2021/09/26 11:44:22;;;;;;;5.17;4.77;;;25.30;99.90;;;;;;6004442;23;20538;-70
2021/09/26 11:46:51;;;;;;;5.17;4.87;;;25.40;99.90;;;;;;6003379;23;20600;-71
2021/09/26 11:49:17;;;;;;;5.07;4.67;;;25.50;99.90;;;;;;6004510;23;20161;-71
2021/09/26 11:51:43;;;;;;;5.10;4.70;;;25.60;99.90;;;;;;6006048;23;20550;-71
2021/09/26 11:54:10;;;;;;;4.87;4.57;;;25.60;99.90;;;;;;6006110;23;20552;-70
2021/09/26 11:56:43;;;;;;;4.63;4.30;;;25.40;99.90;;;;;;5977169;23;20593;-71
2021/09/26 11:59:16;;;;;;;4.97;4.67;;;25.30;99.90;;;;;;6002708;23;20863;-72
2021/09/26 12:01:47;;;;;;;4.63;4.33;;;25.30;99.90;;;;;;5999470;23;20930;-72
2021/09/26 12:04:23;;;;;;;5.30;4.97;;;25.20;99.90;;;;;;5977252;23;20566;-72
2021/09/26 12:07:01;;;;;;;5.63;5.23;;;25.20;99.90;;;;;;6004262;23;20921;-72
2021/09/26 12:09:40;;;;;;;5.40;5.07;;;25.20;99.90;;;;;;6005602;23;20534;-68
2021/09/26 12:12:23;;;;;;;5.63;5.23;;;25.20;99.90;;;;;;6004074;23;20510;-69
2021/09/26 12:14:59;;;;;;;5.50;5.10;;;25.10;99.90;;;;;;6002642;23;21187;-69
2021/09/26 12:17:27;;;;;;;5.57;5.17;;;25.10;99.90;;;;;;5978151;23;20687;-69
2021/09/26 12:20:13;;;;;;;5.27;4.80;;;25.10;99.90;;;;;;6003330;23;20552;-69
2021/09/26 12:22:40;;;;;;;5.53;5.20;;;25.20;99.90;;;;;;6003918;23;21099;-67
2021/09/26 12:25:08;;;;;;;5.23;4.73;;;25.30;99.90;;;;;;6000076;23;21030;-67
2021/09/26 12:27:37;;;;;;;6.83;5.17;;;25.50;99.90;;;;;;5998892;23;20598;-70
2021/09/26 12:30:10;;;;;;;5.67;5.27;;;26.00;99.90;;;;;;5978333;23;20581;-71
2021/09/26 12:32:40;;;;;;;5.07;4.67;;;26.50;99.90;;;;;;6004911;23;20819;-70
2021/09/26 12:35:11;;;;;;;5.03;4.73;;;26.80;99.90;;;;;;6003538;23;20553;-70
2021/09/26 12:37:49;;;;;;;5.47;5.17;;;26.90;99.90;;;;;;6001870;23;21193;-70
2021/09/26 12:40:24;;;;;;;5.27;4.77;;;26.80;99.90;;;;;;5995547;23;20514;-73
2021/09/26 12:42:52;;;;;;;6.47;5.97;;;26.60;99.90;;;;;;6006087;23;20510;-70
2021/09/26 12:45:36;;;;;;;5.70;5.13;;;26.40;99.90;;;;;;6020404;23;20574;-71
2021/09/26 12:48:03;;;;;;;6.53;6.03;;;26.00;99.90;;;;;;6014494;23;20594;-71
2021/09/26 12:50:29;;;;;;;6.47;6.07;;;26.10;99.90;;;;;;6005030;23;20537;-71
2021/09/26 12:52:57;;;;;;;5.90;5.50;;;26.10;99.90;;;;;;6003030;23;20633;-71
2021/09/26 12:55:30;;;;;;;5.60;5.20;;;26.00;99.90;;;;;;5977294;23;20562;-71